Terminal Aerodrome Forecast
Issued by NWS

Home | Current Version | Previous Version | Text Only | Print | Product List | Glossary On
Versions: 1 2 3 4 5 6 7 8 9 10 11 12 13 14
613
FTUS42 KMLB 290533
TAFTIX
TAF
KTIX 290533Z 2906/3006 VRB04KT P6SM SKC
     FM290900 28004KT P6SM MIFG SCT006
     FM291300 29007KT P6SM SCT025
     FM291800 10010KT P6SM SCT045
     FM300000 12007KT P6SM FEW040
      AMD NOT SKED 2906/2911=

USA.gov is the U.S. government's official web portal to all federal, state and local government web resources and services.